Time;durP1;ratioP1;P1;durP2;ratioP2;P2;SDS_P1;SDS_P2;PMS_P1;PMS_P2;Temp;Humidity;BMP_temperature;BMP_pressure;BME280_temperature;BME280_humidity;BME280_pressure;Samples;Min_cycle;Max_cycle;Signal;HPM_P1;HPM_P2
2021/11/22 00:02:20;;;;;;;0.40;0.30;;;;;;;5.32;100.00;100978.75;5034703;28;20937;-69
2021/11/22 00:04:46;;;;;;;0.40;0.30;;;;;;;5.27;100.00;100973.34;5034874;28;20542;-70
2021/11/22 00:07:15;;;;;;;4.33;3.90;;;;;;;5.34;100.00;100978.47;5035012;28;20493;-70
2021/11/22 00:09:42;;;;;;;24.50;8.07;;;;;;;5.30;100.00;100978.16;5034478;28;21038;-70
2021/11/22 00:12:09;;;;;;;0.40;0.20;;;;;;;5.47;100.00;100977.22;5034798;28;20487;-69
2021/11/22 00:14:38;;;;;;;0.40;0.30;;;;;;;5.54;100.00;100984.00;5034877;28;20497;-69
2021/11/22 00:17:05;;;;;;;0.40;0.20;;;;;;;5.59;100.00;100983.25;5034543;28;20872;-70
2021/11/22 00:19:33;;;;;;;19.20;17.50;;;;;;;5.58;100.00;100995.06;5034709;28;20463;-70
2021/11/22 00:22:00;;;;;;;0.40;0.30;;;;;;;5.54;100.00;101002.03;5034676;28;20497;-70
2021/11/22 00:24:27;;;;;;;0.40;0.30;;;;;;;5.55;100.00;100998.25;5034337;28;20443;-70
2021/11/22 00:26:54;;;;;;;0.40;0.23;;;;;;;5.61;100.00;100999.09;5034548;28;20497;-70
2021/11/22 00:29:20;;;;;;;0.40;0.20;;;;;;;5.76;100.00;101004.59;5034423;28;20463;-70
2021/11/22 00:31:51;;;;;;;0.40;0.30;;;;;;;5.80;100.00;101001.13;5034012;28;20523;-70
2021/11/22 00:34:18;;;;;;;0.40;0.30;;;;;;;5.83;100.00;101000.59;5034451;28;20498;-70
2021/11/22 00:36:45;;;;;;;0.40;0.30;;;;;;;5.82;100.00;100998.97;5034047;28;20455;-70
2021/11/22 00:39:11;;;;;;;0.40;0.20;;;;;;;5.88;100.00;101010.56;5033802;28;20581;-70
2021/11/22 00:41:38;;;;;;;2.00;1.90;;;;;;;5.89;100.00;101017.59;5033938;28;20929;-70
2021/11/22 00:44:05;;;;;;;0.40;0.30;;;;;;;5.83;100.00;101018.59;5034243;28;20562;-70
2021/11/22 00:46:32;;;;;;;0.40;0.30;;;;;;;5.87;100.00;101025.09;5033869;28;20525;-70
2021/11/22 00:49:00;;;;;;;0.40;0.30;;;;;;;5.95;100.00;101030.00;5033977;28;20858;-70
2021/11/22 00:51:26;;;;;;;0.40;0.30;;;;;;;6.03;100.00;101031.41;5033871;28;21026;-70
2021/11/22 00:53:53;;;;;;;0.40;0.20;;;;;;;5.94;100.00;101041.03;5034034;28;20443;-70
2021/11/22 00:56:21;;;;;;;0.40;0.30;;;;;;;6.01;100.00;101039.72;5033825;28;20492;-70
2021/11/22 00:58:48;;;;;;;0.40;0.30;;;;;;;6.10;100.00;101047.31;5033888;28;20439;-70
2021/11/22 01:01:15;;;;;;;0.40;0.30;;;;;;;6.10;100.00;101047.31;5033675;28;20866;-70
2021/11/22 01:03:42;;;;;;;0.40;0.30;;;;;;;6.05;100.00;101059.66;5033852;28;20526;-70
2021/11/22 01:06:10;;;;;;;0.90;0.73;;;;;;;6.06;100.00;101061.28;5033808;28;20865;-71
2021/11/22 01:08:37;;;;;;;0.40;0.30;;;;;;;6.04;100.00;101073.38;5033755;28;20521;-72
2021/11/22 01:11:03;;;;;;;0.40;0.30;;;;;;;5.91;100.00;101069.22;5033304;28;20593;-72
2021/11/22 01:13:30;;;;;;;0.40;0.20;;;;;;;5.86;100.00;101077.25;5033419;28;20494;-72
2021/11/22 01:15:57;;;;;;;0.40;0.20;;;;;;;5.88;100.00;101080.47;5033601;28;20490;-72
2021/11/22 01:18:24;;;;;;;0.40;0.30;;;;;;;5.86;100.00;101081.81;5033656;28;20509;-72
2021/11/22 01:20:50;;;;;;;0.40;0.30;;;;;;;5.87;100.00;101088.81;5033440;28;20513;-72
2021/11/22 01:23:18;;;;;;;0.40;0.30;;;;;;;5.79;100.00;101088.19;5033547;28;20447;-72
2021/11/22 01:25:46;;;;;;;0.40;0.30;;;;;;;5.84;100.00;101098.16;5033223;28;20868;-72
2021/11/22 01:28:13;;;;;;;0.40;0.30;;;;;;;5.88;100.00;101101.16;5033496;28;20439;-72
2021/11/22 01:30:40;;;;;;;0.40;0.30;;;;;;;5.83;100.00;101100.06;5033530;28;20495;-72
2021/11/22 01:33:07;;;;;;;0.40;0.30;;;;;;;5.77;100.00;101106.47;5033405;28;20439;-72
2021/11/22 01:35:34;;;;;;;0.40;0.30;;;;;;;5.73;100.00;101105.34;5033401;28;20438;-72
2021/11/22 01:38:01;;;;;;;0.40;0.20;;;;;;;5.73;100.00;101113.41;5033400;28;20447;-72
2021/11/22 01:40:29;;;;;;;0.40;0.30;;;;;;;5.77;100.00;101119.91;5033384;28;20521;-72
2021/11/22 01:42:57;;;;;;;0.40;0.20;;;;;;;5.78;100.00;101118.84;5032939;28;20968;-72
2021/11/22 01:45:25;;;;;;;0.40;0.30;;;;;;;5.81;100.00;101128.28;5032885;28;21008;-72
2021/11/22 01:47:52;;;;;;;1.30;1.20;;;;;;;5.82;100.00;101129.91;5032866;28;21006;-72
2021/11/22 01:50:22;;;;;;;0.40;0.30;;;;;;;5.82;100.00;101128.00;5032749;28;20973;-72
2021/11/22 01:52:51;;;;;;;0.40;0.20;;;;;;;5.76;100.00;101139.00;5032215;28;20487;-72
2021/11/22 01:55:21;;;;;;;0.40;0.23;;;;;;;5.84;100.00;101135.81;5032734;28;20454;-72
2021/11/22 01:57:51;;;;;;;0.40;0.30;;;;;;;5.83;100.00;101148.44;5033131;28;20443;-72
2021/11/22 02:00:22;;;;;;;0.40;0.30;;;;;;;5.81;100.00;101149.78;5032999;28;20592;-72
2021/11/22 02:02:49;;;;;;;0.40;0.27;;;;;;;5.81;100.00;101149.78;5033061;28;20506;-72
2021/11/22 02:05:17;;;;;;;0.40;0.30;;;;;;;5.82;100.00;101154.91;5032303;28;20447;-72
2021/11/22 02:07:44;;;;;;;0.40;0.30;;;;;;;5.83;100.00;101159.19;5032631;28;20443;-72
2021/11/22 02:10:11;;;;;;;0.40;0.30;;;;;;;5.88;100.00;101154.94;5033080;28;20455;-71
2021/11/22 02:12:38;;;;;;;0.40;0.30;;;;;;;5.85;100.00;101169.72;5032739;28;20483;-71
2021/11/22 02:15:09;;;;;;;0.40;0.30;;;;;;;5.80;100.00;101165.09;5032487;28;20455;-71
2021/11/22 02:17:39;;;;;;;0.40;0.30;;;;;;;5.83;100.00;101169.94;5032580;28;20975;-71
2021/11/22 02:20:10;;;;;;;0.40;0.30;;;;;;;5.89;100.00;101172.69;5032798;28;20467;-71
2021/11/22 02:22:37;;;;;;;0.40;0.30;;;;;;;5.95;100.00;101177.09;5032993;28;20419;-71
2021/11/22 02:25:08;;;;;;;0.40;0.30;;;;;;;5.94;100.00;101175.47;5032505;28;20443;-71
2021/11/22 02:27:35;;;;;;;0.40;0.30;;;;;;;5.93;100.00;101174.66;5032780;28;20439;-71
2021/11/22 02:30:02;;;;;;;0.40;0.20;;;;;;;5.93;100.00;101179.19;5032652;28;20455;-71
2021/11/22 02:32:29;;;;;;;0.40;0.30;;;;;;;6.02;100.00;101183.03;5032341;28;21154;-71
2021/11/22 02:34:56;;;;;;;0.40;0.30;;;;;;;6.07;100.00;101185.81;5032675;28;20451;-71
2021/11/22 02:37:24;;;;;;;0.40;0.20;;;;;;;6.06;100.00;101190.38;5032705;28;20447;-72
2021/11/22 02:39:51;;;;;;;0.40;0.23;;;;;;;6.06;100.00;101182.31;5032520;28;20481;-72
2021/11/22 02:42:23;;;;;;;0.40;0.30;;;;;;;6.03;100.00;101190.88;5032675;28;20588;-71
2021/11/22 02:44:50;;;;;;;0.40;0.30;;;;;;;6.05;100.00;101196.00;5032338;28;20991;-72
2021/11/22 02:47:17;;;;;;;0.40;0.30;;;;;;;6.08;100.00;101198.19;5032249;28;20549;-72
2021/11/22 02:49:44;;;;;;;0.40;0.30;;;;;;;6.07;100.00;101196.56;5032532;28;20514;-72
2021/11/22 02:52:11;;;;;;;0.40;0.30;;;;;;;6.19;100.00;101199.88;5033816;28;20483;-72
2021/11/22 02:54:40;;;;;;;0.40;0.30;;;;;;;6.19;100.00;101205.25;5032269;28;20475;-72
2021/11/22 02:57:07;;;;;;;0.40;0.23;;;;;;;6.19;100.00;101204.44;5032252;28;20458;-72
2021/11/22 02:59:38;;;;;;;0.40;0.30;;;;;;;6.23;100.00;101216.31;5032098;28;20522;-72
2021/11/22 03:02:05;;;;;;;0.40;0.30;;;;;;;6.28;100.00;101214.47;5032162;28;20979;-72
2021/11/22 03:04:34;;;;;;;0.40;0.30;;;;;;;6.24;100.00;101213.38;5035818;28;20447;-72
2021/11/22 03:07:00;;;;;;;0.40;0.30;;;;;;;6.13;100.00;101211.66;5036018;28;20497;-72
2021/11/22 03:09:28;;;;;;;0.40;0.30;;;;;;;6.18;100.00;101227.03;5035745;28;20463;-72
2021/11/22 03:11:59;;;;;;;0.40;0.30;;;;;;;6.23;100.00;101219.81;5035874;28;20482;-72
2021/11/22 03:14:27;;;;;;;0.40;0.30;;;;;;;6.29;100.00;101234.13;5035687;28;20921;-72
2021/11/22 03:16:54;;;;;;;0.40;0.30;;;;;;;6.30;100.00;101236.56;5035848;28;20446;-72
2021/11/22 03:19:21;;;;;;;0.40;0.30;;;;;;;6.26;100.00;101242.72;5035449;28;20517;-71
2021/11/22 03:21:48;;;;;;;0.40;0.20;;;;;;;6.26;100.00;101246.22;5035807;28;20455;-71
2021/11/22 03:24:16;;;;;;;0.40;0.30;;;;;;;6.30;100.00;101250.00;5035367;28;20830;-71
2021/11/22 03:26:42;;;;;;;0.40;0.20;;;;;;;6.36;100.00;101255.44;5035363;28;20485;-72
2021/11/22 03:29:11;;;;;;;0.40;0.30;;;;;;;6.38;100.00;101262.19;5035266;28;20466;-72
2021/11/22 03:31:38;;;;;;;0.40;0.30;;;;;;;6.38;100.00;101261.38;5035526;28;20582;-71
2021/11/22 03:34:07;;;;;;;0.40;0.30;;;;;;;6.35;100.00;101272.66;5035750;28;20439;-72
2021/11/22 03:36:34;;;;;;;0.40;0.30;;;;;;;6.36;100.00;101279.66;5035202;28;21047;-72
2021/11/22 03:39:07;;;;;;;0.40;0.30;;;;;;;6.30;100.00;101286.88;5035378;28;20501;-72
2021/11/22 03:41:34;;;;;;;0.40;0.30;;;;;;;6.31;100.00;101283.91;5035444;28;20432;-72
2021/11/22 03:44:10;;;;;;;0.40;0.30;;;;;;;6.30;100.00;101286.88;5035113;28;20455;-72
2021/11/22 03:46:39;;;;;;;0.40;0.30;;;;;;;6.31;100.00;101294.66;5035389;28;20427;-72
2021/11/22 03:49:06;;;;;;;0.40;0.30;;;;;;;6.22;100.00;101298.91;5035254;28;20451;-72
2021/11/22 03:51:33;;;;;;;0.40;0.30;;;;;;;6.18;100.00;101294.28;5035533;28;20486;-72
2021/11/22 03:54:00;;;;;;;0.40;0.30;;;;;;;6.18;100.00;101303.16;5034895;28;20439;-72
2021/11/22 03:56:27;;;;;;;0.40;0.30;;;;;;;6.19;100.00;101302.06;5034994;28;20505;-72
2021/11/22 03:58:53;;;;;;;0.40;0.30;;;;;;;6.19;100.00;101318.22;5034722;28;20451;-72
2021/11/22 04:01:20;;;;;;;0.40;0.27;;;;;;;6.14;100.00;101314.69;5035031;28;20451;-72
2021/11/22 04:03:48;;;;;;;0.40;0.30;;;;;;;6.02;100.00;101317.50;5034738;28;20506;-72
2021/11/22 04:06:16;;;;;;;0.40;0.30;;;;;;;5.94;100.00;101315.28;5034939;28;20442;-72
2021/11/22 04:08:43;;;;;;;0.40;0.30;;;;;;;5.97;100.00;101328.19;5034894;28;20538;-72
2021/11/22 04:11:10;;;;;;;0.40;0.30;;;;;;;5.97;100.00;101330.88;5034801;28;20494;-72
2021/11/22 04:13:37;;;;;;;0.40;0.30;;;;;;;5.99;100.00;101334.97;5034704;28;20546;-72
2021/11/22 04:16:05;;;;;;;0.40;0.30;;;;;;;5.99;100.00;101334.16;5033740;28;20510;-72
2021/11/22 04:18:32;;;;;;;0.40;0.30;;;;;;;5.97;100.00;101349.72;5034659;28;20489;-72
2021/11/22 04:21:01;;;;;;;0.40;0.30;;;;;;;6.08;100.00;101348.78;5034582;28;20525;-72
2021/11/22 04:23:28;;;;;;;0.40;0.30;;;;;;;6.12;100.00;101354.47;5034335;28;20439;-72
2021/11/22 04:25:55;;;;;;;0.40;0.20;;;;;;;5.93;100.00;101359.34;5034564;28;20829;-72
2021/11/22 04:28:21;;;;;;;0.40;0.30;;;;;;;6.00;100.00;101368.03;5034742;28;20513;-72
2021/11/22 04:30:48;;;;;;;0.40;0.30;;;;;;;5.99;100.00;101361.84;5034085;28;20505;-71
2021/11/22 04:33:15;;;;;;;0.50;0.40;;;;;;;6.01;100.00;101358.91;5034291;28;20550;-72
2021/11/22 04:35:42;;;;;;;0.40;0.30;;;;;;;6.09;100.00;101373.78;5034075;28;21023;-72
2021/11/22 04:38:10;;;;;;;0.40;0.30;;;;;;;6.14;100.00;101379.22;5034010;28;20525;-72
2021/11/22 04:40:37;;;;;;;0.40;0.20;;;;;;;6.13;100.00;101383.78;5034231;28;20463;-71
2021/11/22 04:43:04;;;;;;;0.40;0.20;;;;;;;6.13;100.00;101389.16;5033942;28;20890;-71
2021/11/22 04:45:32;;;;;;;0.40;0.30;;;;;;;6.04;100.00;101393.38;5034240;28;20852;-70
2021/11/22 04:48:01;;;;;;;0.40;0.30;;;;;;;6.07;100.00;101391.00;5034199;28;20475;-70
2021/11/22 04:50:28;;;;;;;0.40;0.20;;;;;;;6.07;100.00;101392.88;5034021;28;20467;-72
2021/11/22 04:52:56;;;;;;;0.40;0.23;;;;;;;5.96;100.00;101396.50;5033970;28;20482;-71
2021/11/22 04:55:25;;;;;;;0.40;0.30;;;;;;;5.87;100.00;101401.47;5033754;28;20534;-72
2021/11/22 04:57:53;;;;;;;0.40;0.30;;;;;;;5.85;100.00;101403.59;5033961;28;20497;-73
2021/11/22 05:00:21;;;;;;;0.40;0.30;;;;;;;5.67;100.00;101411.97;5033824;28;20467;-73
2021/11/22 05:02:49;;;;;;;2.60;2.50;;;;;;;5.71;100.00;101411.22;5033523;28;20937;-72
2021/11/22 05:05:17;;;;;;;0.40;0.30;;;;;;;5.59;100.00;101410.50;5033824;28;20446;-72
2021/11/22 05:07:46;;;;;;;0.40;0.30;;;;;;;5.58;100.00;101419.63;5033775;28;20432;-72
2021/11/22 05:10:13;;;;;;;0.40;0.20;;;;;;;5.51;100.00;101421.66;5033877;28;20525;-72
2021/11/22 05:12:41;;;;;;;0.40;0.30;;;;;;;5.55;100.00;101425.47;5033242;28;20482;-72
2021/11/22 05:15:08;;;;;;;0.40;0.30;;;;;;;5.56;100.00;101424.41;5033732;28;20494;-71
2021/11/22 05:17:35;;;;;;;0.40;0.30;;;;;;;5.61;100.00;101424.47;5033339;28;21023;-69
2021/11/22 05:20:02;;;;;;;0.40;0.20;;;;;;;5.59;100.00;101425.81;5033053;28;20526;-70
2021/11/22 05:22:28;;;;;;;0.40;0.30;;;;;;;5.54;100.00;101424.66;5033673;28;20439;-70
2021/11/22 05:24:55;;;;;;;0.40;0.30;;;;;;;5.44;100.00;101424.50;5033479;28;20489;-69
2021/11/22 05:27:23;;;;;;;0.40;0.30;;;;;;;5.41;100.00;101433.06;5033026;28;20497;-69
2021/11/22 05:29:52;;;;;;;0.50;0.40;;;;;;;5.37;100.00;101437.31;5033316;28;20466;-69
2021/11/22 05:32:19;;;;;;;0.40;0.20;;;;;;;5.43;100.00;101439.00;5033267;28;20541;-70
2021/11/22 05:34:48;;;;;;;0.40;0.30;;;;;;;5.45;100.00;101442.28;5033018;28;20439;-69
2021/11/22 05:37:15;;;;;;;0.40;0.30;;;;;;;5.42;100.00;101447.31;5032949;28;20517;-69
2021/11/22 05:39:42;;;;;;;0.40;0.30;;;;;;;5.42;100.00;101455.38;5032620;28;20463;-70
2021/11/22 05:42:09;;;;;;;0.40;0.30;;;;;;;5.40;100.00;101454.78;5033013;28;20905;-69
2021/11/22 05:44:36;;;;;;;0.40;0.30;;;;;;;5.25;100.00;101456.19;5033156;28;20447;-70
2021/11/22 05:47:07;;;;;;;0.40;0.30;;;;;;;5.27;100.00;101466.69;5032911;28;20462;-69
2021/11/22 05:49:36;;;;;;;0.40;0.27;;;;;;;5.16;100.00;101456.84;5032772;28;21028;-69
2021/11/22 05:52:04;;;;;;;0.40;0.30;;;;;;;5.09;100.00;101464.22;5032954;28;20982;-70
2021/11/22 05:54:32;;;;;;;0.40;0.30;;;;;;;5.02;100.00;101472.44;5032754;28;20862;-70
2021/11/22 05:56:59;;;;;;;0.40;0.30;;;;;;;4.91;100.00;101467.94;5032776;28;20433;-70
2021/11/22 05:59:26;;;;;;;0.40;0.30;;;;;;;4.79;100.00;101476.88;5032432;28;20486;-70
2021/11/22 06:01:52;;;;;;;0.40;0.30;;;;;;;4.71;100.00;101482.63;5032978;28;20501;-70
2021/11/22 06:04:21;;;;;;;0.40;0.30;;;;;;;4.64;100.00;101487.31;5032561;28;20984;-70
2021/11/22 06:06:47;;;;;;;0.40;0.30;;;;;;;4.61;100.00;101487.81;5032500;28;20439;-70
2021/11/22 06:09:14;;;;;;;0.40;0.30;;;;;;;4.62;100.00;101500.16;5032328;28;21000;-70
2021/11/22 06:11:43;;;;;;;0.40;0.23;;;;;;;4.57;100.00;101492.00;5032672;28;20450;-69
2021/11/22 06:14:09;;;;;;;0.40;0.30;;;;;;;4.49;100.00;101497.75;5032548;28;20479;-69
2021/11/22 06:16:36;;;;;;;0.40;0.30;;;;;;;4.47;100.00;101505.19;5032579;28;20952;-70
2021/11/22 06:19:03;;;;;;;0.40;0.30;;;;;;;4.46;100.00;101508.94;5032543;28;20489;-69
2021/11/22 06:21:31;;;;;;;0.40;0.30;;;;;;;4.37;100.00;101513.03;5032588;28;20446;-70
2021/11/22 06:23:59;;;;;;;0.40;0.20;;;;;;;4.20;100.00;101515.63;5032490;28;20996;-69
2021/11/22 06:26:25;;;;;;;0.40;0.30;;;;;;;4.27;100.00;101517.16;5032772;28;20505;-69
2021/11/22 06:28:53;;;;;;;0.40;0.20;;;;;;;4.30;100.00;101516.69;5032707;28;20497;-69
2021/11/22 06:31:20;;;;;;;0.40;0.23;;;;;;;4.22;100.00;101519.72;5032715;28;20443;-69
2021/11/22 06:33:46;;;;;;;0.40;0.30;;;;;;;4.25;100.00;101532.66;5032361;28;21078;-69
2021/11/22 06:36:13;;;;;;;0.40;0.30;;;;;;;4.21;100.00;101544.91;5032567;28;20517;-69
2021/11/22 06:38:41;;;;;;;0.40;0.20;;;;;;;4.17;100.00;101543.75;5034829;28;20497;-69
2021/11/22 06:41:08;;;;;;;0.40;0.20;;;;;;;4.19;100.00;101547.00;5036339;28;20463;-70
2021/11/22 06:43:35;;;;;;;0.40;0.30;;;;;;;4.17;100.00;101556.34;5036043;28;20887;-69
2021/11/22 06:46:02;;;;;;;0.40;0.20;;;;;;;4.10;100.00;101558.31;5036436;28;20439;-70
2021/11/22 06:48:28;;;;;;;0.40;0.30;;;;;;;4.04;100.00;101566.25;5036414;28;20493;-69
2021/11/22 06:50:55;;;;;;;0.40;0.30;;;;;;;4.03;100.00;101571.84;5036020;28;20470;-71
2021/11/22 06:53:22;;;;;;;0.40;0.20;;;;;;;3.99;100.00;101574.19;5036027;28;20478;-72
2021/11/22 06:55:51;;;;;;;0.40;0.30;;;;;;;3.99;100.00;101579.53;5036126;28;20517;-71
2021/11/22 06:58:18;;;;;;;0.40;0.30;;;;;;;3.93;100.00;101582.31;5035978;28;20471;-72
2021/11/22 07:00:45;;;;;;;0.40;0.20;;;;;;;4.00;100.00;101588.41;5035748;28;20553;-72
2021/11/22 07:03:12;;;;;;;0.40;0.30;;;;;;;4.00;100.00;101599.94;5035756;28;20438;-72
2021/11/22 07:05:39;;;;;;;0.40;0.23;;;;;;;3.94;100.00;101602.69;5035794;28;20943;-72
2021/11/22 07:08:07;;;;;;;0.40;0.30;;;;;;;3.85;100.00;101604.94;5035995;28;20454;-71
2021/11/22 07:10:35;;;;;;;0.40;0.20;;;;;;;3.80;100.00;101602.91;5035672;28;20980;-71
2021/11/22 07:13:03;;;;;;;0.40;0.30;;;;;;;3.81;100.00;101614.47;5035575;28;21011;-72
2021/11/22 07:15:35;;;;;;;0.40;0.30;;;;;;;3.79;100.00;101616.56;5035910;28;20824;-71
2021/11/22 07:18:02;;;;;;;0.40;0.30;;;;;;;3.75;100.00;101621.56;5035893;28;20772;-71
2021/11/22 07:20:29;;;;;;;0.40;0.30;;;;;;;3.72;100.00;101627.38;5035746;28;20517;-71
2021/11/22 07:22:56;;;;;;;0.40;0.30;;;;;;;3.66;100.00;101625.63;5035702;28;20451;-70
2021/11/22 07:25:23;;;;;;;0.40;0.30;;;;;;;3.64;100.00;101625.03;5035696;28;20443;-70
2021/11/22 07:27:50;;;;;;;0.40;0.20;;;;;;;3.65;100.00;101626.66;5035699;28;20454;-70
2021/11/22 07:30:21;;;;;;;0.40;0.30;;;;;;;3.73;100.00;101639.72;5035545;28;20545;-70
2021/11/22 07:32:52;;;;;;;0.40;0.30;;;;;;;3.75;100.00;101642.16;5035252;28;20471;-71
2021/11/22 07:35:19;;;;;;;0.40;0.30;;;;;;;3.76;100.00;101647.31;5035072;28;20432;-71
2021/11/22 07:37:46;;;;;;;0.40;0.30;;;;;;;3.78;100.00;101647.09;5035306;28;20493;-71
2021/11/22 07:40:13;;;;;;;0.40;0.30;;;;;;;3.80;100.00;101656.50;5035220;28;20467;-70
2021/11/22 07:42:40;;;;;;;0.40;0.27;;;;;;;3.78;100.00;101655.94;5035057;28;20447;-71
2021/11/22 07:45:07;;;;;;;0.40;0.30;;;;;;;3.85;100.00;101661.22;5034937;28;21007;-71
2021/11/22 07:47:35;;;;;;;0.60;0.60;;;;;;;3.74;100.00;101675.38;5035281;28;20449;-71
2021/11/22 07:50:03;;;;;;;0.40;0.30;;;;;;;3.73;100.00;101676.44;5033921;28;20902;-70
2021/11/22 07:52:29;;;;;;;0.40;0.30;;;;;;;3.69;100.00;101675.25;5035116;28;20854;-71
2021/11/22 07:54:56;;;;;;;0.40;0.30;;;;;;;3.81;100.00;101676.13;5034735;28;20479;-71
2021/11/22 07:57:23;;;;;;;0.40;0.30;;;;;;;3.79;100.00;101688.91;5034784;28;20479;-70
2021/11/22 07:59:51;;;;;;;0.40;0.30;;;;;;;3.64;100.00;101688.53;5034701;28;20467;-70
2021/11/22 08:02:18;;;;;;;0.40;0.30;;;;;;;3.64;100.00;101693.88;5034890;28;20518;-70
2021/11/22 08:04:46;;;;;;;0.40;0.30;;;;;;;3.78;100.00;101695.31;5035019;28;20789;-70
2021/11/22 08:07:16;;;;;;;0.40;0.30;;;;;;;3.91;100.00;101695.13;5034597;28;20871;-70
2021/11/22 08:09:54;;;;;;;0.40;0.30;;;;;;;3.91;100.00;101705.03;5035081;28;20463;-70
2021/11/22 08:12:27;;;;;;;0.40;0.30;;;;;;;3.96;100.00;101705.97;5034594;28;20419;-70
2021/11/22 08:14:59;;;;;;;0.40;0.20;;;;;;;4.04;100.00;101716.38;5034470;28;20902;-69
2021/11/22 08:17:26;;;;;;;0.40;0.27;;;;;;;4.05;100.00;101722.53;5034758;28;20431;-70
2021/11/22 08:19:56;;;;;;;0.40;0.30;;;;;;;3.97;100.00;101722.88;5034215;28;20984;-70
2021/11/22 08:22:25;;;;;;;0.40;0.30;;;;;;;3.94;100.00;101724.16;5034528;28;20444;-70
2021/11/22 08:24:53;;;;;;;0.40;0.30;;;;;;;3.92;100.00;101728.91;5034464;28;20446;-70
2021/11/22 08:27:21;;;;;;;0.40;0.30;;;;;;;3.98;100.00;101733.34;5034461;28;20505;-70
2021/11/22 08:29:48;;;;;;;0.40;0.30;;;;;;;3.99;100.00;101731.50;5034124;28;21042;-67
2021/11/22 08:32:16;;;;;;;0.40;0.23;;;;;;;4.12;100.00;101735.84;5034140;28;20476;-69
2021/11/22 08:34:43;;;;;;;0.40;0.30;;;;;;;4.25;100.00;101739.16;5033991;28;21093;-69
2021/11/22 08:37:12;;;;;;;0.40;0.30;;;;;;;4.31;100.00;101742.78;5034287;28;20858;-71
2021/11/22 08:39:39;;;;;;;0.40;0.30;;;;;;;4.40;100.00;101743.25;5034212;28;20849;-70
2021/11/22 08:42:06;;;;;;;0.40;0.23;;;;;;;4.46;100.00;101740.44;5033941;28;20940;-71
2021/11/22 08:44:35;;;;;;;0.40;0.30;;;;;;;4.50;100.00;101743.50;5034216;28;20832;-70
2021/11/22 08:47:02;;;;;;;0.40;0.20;;;;;;;4.49;100.00;101750.72;5033855;28;20447;-70
2021/11/22 08:49:30;;;;;;;0.40;0.30;;;;;;;4.53;100.00;101751.91;5034027;28;20467;-70
2021/11/22 08:51:57;;;;;;;0.40;0.20;;;;;;;4.59;100.00;101763.56;5035348;28;20447;-71
2021/11/22 08:54:25;;;;;;;0.40;0.30;;;;;;;4.42;100.00;101763.41;5033735;28;20491;-71
2021/11/22 08:56:52;;;;;;;0.40;0.30;;;;;;;4.49;100.00;101758.78;5033656;28;20427;-70
2021/11/22 08:59:19;;;;;;;0.40;0.30;;;;;;;4.46;100.00;101761.09;5033738;28;20471;-70
2021/11/22 09:01:46;;;;;;;0.40;0.20;;;;;;;4.47;100.00;101766.25;5033492;28;20517;-70
2021/11/22 09:04:13;;;;;;;0.40;0.20;;;;;;;4.48;100.00;101770.56;5033847;28;20443;-71
2021/11/22 09:06:40;;;;;;;0.40;0.27;;;;;;;4.54;100.00;101769.63;5033833;28;20435;-71
2021/11/22 09:09:09;;;;;;;0.40;0.20;;;;;;;4.65;100.00;101770.72;5033925;28;20493;-70
2021/11/22 09:11:38;;;;;;;0.40;0.30;;;;;;;4.73;100.00;101773.03;5033705;28;20547;-70
2021/11/22 09:14:06;;;;;;;0.40;0.30;;;;;;;4.70;100.00;101773.50;5033240;28;20834;-69
2021/11/22 09:16:33;;;;;;;0.40;0.30;;;;;;;4.79;100.00;101774.78;5033657;28;20502;-69
2021/11/22 09:19:02;;;;;;;0.40;0.20;;;;;;;4.80;100.00;101776.41;5033222;28;20450;-70
2021/11/22 09:21:29;;;;;;;0.40;0.30;;;;;;;4.85;100.00;101772.22;5033558;28;20501;-70
2021/11/22 09:23:57;;;;;;;0.40;0.30;;;;;;;4.92;99.64;101772.94;5033518;28;20467;-70
2021/11/22 09:26:24;;;;;;;0.40;0.30;;;;;;;4.90;99.80;101785.75;5033504;28;20443;-70
2021/11/22 09:28:52;;;;;;;0.40;0.30;;;;;;;5.09;99.49;101786.44;5033017;28;20600;-70
2021/11/22 09:31:20;;;;;;;0.40;0.30;;;;;;;5.18;99.60;101790.41;5033108;28;20948;-70
2021/11/22 09:33:50;;;;;;;0.40;0.27;;;;;;;5.24;99.01;101794.84;5033028;28;20564;-70
2021/11/22 09:36:17;;;;;;;0.40;0.20;;;;;;;5.19;98.48;101798.25;5033814;28;20451;-70
2021/11/22 09:38:43;;;;;;;0.40;0.20;;;;;;;5.24;97.19;101794.84;5032982;28;20470;-70
2021/11/22 09:41:11;;;;;;;0.40;0.30;;;;;;;5.29;96.11;101797.66;5032901;28;20470;-70
2021/11/22 09:43:38;;;;;;;0.40;0.20;;;;;;;5.27;94.76;101805.94;5033245;28;20513;-70
2021/11/22 09:46:06;;;;;;;0.40;0.20;;;;;;;5.36;94.53;101813.63;5033178;28;20454;-70
2021/11/22 09:48:33;;;;;;;0.40;0.20;;;;;;;5.32;93.36;101807.94;5033127;28;20450;-70
2021/11/22 09:50:59;;;;;;;0.40;0.30;;;;;;;5.25;92.94;101813.41;5032726;28;20522;-70
2021/11/22 09:53:27;;;;;;;0.40;0.30;;;;;;;5.28;93.42;101806.75;5032720;28;20478;-70
2021/11/22 09:55:54;;;;;;;0.40;0.30;;;;;;;5.47;93.12;101810.13;5032831;28;20529;-70
2021/11/22 09:58:21;;;;;;;0.40;0.20;;;;;;;5.58;92.56;101817.34;5033060;28;20447;-70
2021/11/22 10:00:50;;;;;;;0.40;0.20;;;;;;;5.61;91.88;101816.84;5032956;28;20980;-70
2021/11/22 10:03:20;;;;;;;0.40;0.30;;;;;;;5.66;91.02;101819.66;5033014;28;20493;-69
2021/11/22 10:05:48;;;;;;;0.40;0.30;;;;;;;5.68;90.27;101817.56;5032643;28;20501;-68
2021/11/22 10:08:17;;;;;;;0.40;0.30;;;;;;;5.70;90.88;101814.63;5033000;28;20513;-68
2021/11/22 10:10:46;;;;;;;0.40;0.30;;;;;;;5.71;89.51;101819.78;5032750;28;20555;-68
2021/11/22 10:13:28;;;;;;;0.40;0.20;;;;;;;5.74;89.06;101824.66;5034216;28;20439;-68
2021/11/22 10:15:57;;;;;;;0.40;0.30;;;;;;;5.82;89.47;101824.28;5037137;28;20486;-68
2021/11/22 10:18:26;;;;;;;0.40;0.20;;;;;;;5.93;88.29;101827.19;5037016;28;20789;-68
2021/11/22 10:20:54;;;;;;;0.40;0.30;;;;;;;6.03;87.43;101822.84;5037171;28;20459;-68
2021/11/22 10:23:23;;;;;;;0.40;0.30;;;;;;;6.18;88.10;101825.00;5036926;28;20443;-68
2021/11/22 10:25:50;;;;;;;0.40;0.30;;;;;;;6.29;87.44;101813.38;5036525;28;20976;-68
2021/11/22 10:28:18;;;;;;;0.40;0.30;;;;;;;6.38;85.22;101816.50;5036775;28;20517;-68
2021/11/22 10:30:48;;;;;;;0.40;0.30;;;;;;;6.45;84.05;101810.94;5036729;28;20474;-68
2021/11/22 10:33:18;;;;;;;0.40;0.30;;;;;;;6.55;82.37;101816.50;5036650;28;20443;-68
2021/11/22 10:35:48;;;;;;;0.40;0.30;;;;;;;6.50;81.49;101809.16;5036717;28;20470;-68
2021/11/22 10:38:17;;;;;;;0.40;0.30;;;;;;;6.46;79.87;101815.25;5036659;28;20431;-68
2021/11/22 10:40:46;;;;;;;0.40;0.30;;;;;;;6.55;80.42;101820.03;5036749;28;20467;-68
2021/11/22 10:43:14;;;;;;;0.40;0.20;;;;;;;6.59;79.05;101812.25;5036527;28;20856;-68
2021/11/22 10:45:43;;;;;;;0.40;0.30;;;;;;;6.66;79.29;101825.56;5036507;28;20447;-68
2021/11/22 10:48:21;;;;;;;0.40;0.30;;;;;;;6.77;79.07;101820.13;5036718;28;20455;-68
2021/11/22 10:51:00;;;;;;;0.40;0.30;;;;;;;6.87;77.78;101819.47;5036294;28;20477;-69
2021/11/22 10:53:36;;;;;;;0.40;0.30;;;;;;;6.91;77.93;101822.47;5036368;28;20505;-68
2021/11/22 10:56:05;;;;;;;0.40;0.30;;;;;;;6.95;75.78;101831.69;5035861;28;20521;-68
2021/11/22 10:58:38;;;;;;;0.40;0.23;;;;;;;7.00;76.49;101821.00;5036241;28;20474;-68
2021/11/22 11:01:29;;;;;;;0.40;0.30;;;;;;;7.08;75.98;101823.25;5035917;28;20471;-68
2021/11/22 11:04:04;;;;;;;0.40;0.30;;;;;;;7.13;75.93;101820.66;5035889;28;20427;-68
2021/11/22 11:06:37;;;;;;;0.40;0.30;;;;;;;7.18;74.81;101834.22;5036138;28;20967;-68
2021/11/22 11:09:05;;;;;;;0.40;0.30;;;;;;;7.16;73.77;101833.63;5035661;28;20482;-68
2021/11/22 11:11:31;;;;;;;0.40;0.30;;;;;;;7.26;73.64;101833.78;5035684;28;20494;-68
2021/11/22 11:14:04;;;;;;;0.40;0.30;;;;;;;7.33;70.82;101845.19;5035771;28;20894;-68
2021/11/22 11:16:31;;;;;;;0.40;0.30;;;;;;;7.27;69.15;101840.81;5035639;28;20435;-68
2021/11/22 11:19:00;;;;;;;0.40;0.23;;;;;;;7.05;70.34;101851.53;5035805;28;20495;-68
2021/11/22 11:21:28;;;;;;;0.40;0.30;;;;;;;7.05;71.10;101839.94;5035782;28;20503;-68
2021/11/22 11:23:58;;;;;;;0.40;0.30;;;;;;;7.56;70.51;101835.25;5035496;28;20443;-68
2021/11/22 11:26:26;;;;;;;0.40;0.30;;;;;;;8.15;68.40;101851.63;5035719;28;20442;-68
2021/11/22 11:28:53;;;;;;;0.40;0.30;;;;;;;9.13;64.74;101854.16;5035606;28;20466;-68
2021/11/22 11:31:20;;;;;;;0.40;0.30;;;;;;;10.00;59.48;101858.09;5035638;28;20439;-68